Terminal Aerodrome Forecast
Issued by NWS El Paso, TX

Home | Current Version | Previous Version | Text Only | Print | Product List | Glossary On
Versions: 1 2 3 4 5 6 7 8 9 10 11 12 13 14 15 16 17
000
FTUS44 KEPZ 281700
TAFELP
TAF
KELP 281720Z 2818/2918 24007KT P6SM FEW250
     FM290300 17005KT P6SM SCT150 BKN250
     FM291400 21005KT P6SM SKC=

USA.gov is the U.S. government's official web portal to all federal, state and local government web resources and services.